Airways and Terminal Forecast

Significant Meteorological Information

WCPH31 RPLL 210245 
RPHI SIGMET 1 VALID 210300/210900 RPLL-
RPHI MANILA FIR TC GAEMI PSN N1636 E12536 CB OBS AT 0000Z WI N2011 E12901 - N1430 E12647 - N1353 E12203 - N1646 E12117 - N2011 E12325 - N2055 E12541 - N2011 E12901 TOP FL550 INTSF FCST AT 0900Z TC CENTRE PSN N1706 E12524=
 

 

 

Terminal Aerodrome Forecast

TAF RPLL

210500Z 2106/2212 25012KT 9999 FEW025 BKN100 TX31/2106Z TN26/2121Z TEMPO 2106/2112 30018KT 5000 TSRA SCT023CB OVC090 TEMPO 2112/2115 -SHRA SCT023CB BKN090 BECMG 2115/2117 26007KT -RA SCT023 BKN080 TEMPO 2203/2209 25015G30KT 2000 +TSRA SCT020CB BKN023 OVC080=

TAF RPVM

210500Z 2106/2212 22007KT 9999 FEW020 TEMPO 2106/2112 23010G20KT 8000 -SHRA FEW018CB BKN100 TEMPO 2112/2118 7000 -SHRA FEW018CB OVC100=

TAF RPLC

210500Z 2106/2212 18008KT 8000 SCT020 BKN100 TX32/2106Z TN25/2121Z TEMPO 2106/2112 05010KT 5000 -TSRA FEW015CB SCT020 OVC100=

TAF RPLB

210500Z 2106/2206 18006KT 9999 FEW018 SCT080 TX32/2106Z TN25/2121Z TEMPO 2106/2112 22010KT 9000 -SHRA FEW018CB SCT018 BKN080=

TAF RPLI

210500Z 2106/2206 25007KT 9999 FEW018 BKN090 TEMPO 2106/2112 22016KT 3000 TS SHRA SCT017CB OVC070 BECMG 2112/2114 25010KT 8000 VCTS -RA FEW017CB SCT018 BKN090 TEMPO 2200/2206 22010G20KT 4000 TS SHRA SCT017CB OVC070=

TAF RPVP

210500Z 2106/2206 21008KT 9999 FEW019 TEMPO 2106/2112 -TSRA SCT017CB BKN080=

TAF RPVD

210500Z 2106/2206 24006KT 9999 FEW015 TEMPO 2106/2112 27010KT FEW014CB SCT070=

TAF RPMR

210500Z 2106/2206 18006KT 9999 FEW018 SCT080 TEMPO 2106/2112 15012KT FEW017CB BKN080=

TAF RPMD

210500Z 2106/2206 20005KT 9999 FEW016 SCT090 TEMPO 2106/2109 15008KT FEW016 BKN090 TEMPO 2109/2115 26009KT -TSRA SCT015CB BKN090=

TAF RPMZ

210500Z 2106/2206 25005KT 9999 FEW017 TEMPO 2106/2112 16008KT FEW016CB SCT090=

TAF RPVK

210500Z 2106/2206 23009KT 9999 FEW016 SCT070 TEMPO 2106/2112 28012KT -SHRA FEW013CB BKN070=

RPLL FORECAST TAKE-OFF CONDITION

TIME

(UTC)

WIND

(dddffKT)

TEMP

(°C)

QNH

(hPa)

TIME

(UTC)

WIND

(dddffKT)

TEMP

(°C)

QNH

(hPa)

0600

26012KT

31.0

1008.0

1000

27013KT

29.0

1008.0

0700

27013KT

30.0

1007.0

1100

26012KT

28.0

1008.5

0800

30018KT

30.0

1007.0

1200

25009KT

28.0

1009.0

0900

29015KT

29.0

1007.0

1300

25007KT

28.0

1009.0

 

ISSUED AT NAIA AMSS-WD/PAGASA-DOST FOR 0500UTC 21 JULY 2024

PREPARED BY:   JRAB

CHECKED BY:     SSDH

We always find ways to improve our weather products and services. Click Here to get started with our short survey. Your Feedback is important to us.